EGGP - Liverpool Airport
Distance from station: E 5mi, 14km
Updated: 07/19/2018 5:50am
Few Clouds
Few Clouds
 Wind from varies
Wind: varies 6 mph , 9 km/h
Temperature: 73°F , 23°C
Dew Point: 46°F , 8°C
Humidity: 38%
Barometer: 30.09 inHg , 1019 hPa
Clouds: Few Clouds
Visibility: 6 miles , 10 km
Cloud details: Few Clouds 4500 ft
2018/07/19 12:50 EGGP 191250Z VRB05KT 9999 FEW045 23/08 Q1019